createdAt,value
2022-12-08T00:00:24.083Z,18.79
2022-12-08T00:01:24.049Z,19.50
2022-12-08T00:02:24.214Z,20.79
2022-12-08T00:03:24.184Z,19.50
2022-12-08T00:04:23.959Z,20.70
2022-12-08T00:05:23.948Z,19.70
2022-12-08T00:06:23.894Z,19.39
2022-12-08T00:07:23.859Z,21.00
2022-12-08T00:08:23.881Z,21.00
2022-12-08T00:09:23.919Z,20.70
2022-12-08T00:10:47.915Z,21.00
2022-12-08T00:11:24.759Z,21.29
2022-12-08T00:12:23.720Z,20.89
2022-12-08T00:13:23.698Z,21.79
2022-12-08T00:14:23.676Z,21.89
2022-12-08T00:15:23.658Z,22.79
2022-12-08T00:16:23.711Z,23.20
2022-12-08T00:17:23.610Z,23.79
2022-12-08T00:18:23.582Z,22.39
2022-12-08T00:19:23.555Z,24.10
2022-12-08T00:20:23.527Z,22.60
2022-12-08T00:21:23.522Z,23.00
2022-12-08T00:22:23.472Z,23.29
2022-12-08T00:23:23.441Z,22.60
2022-12-08T00:24:23.411Z,22.70
2022-12-08T00:25:23.383Z,23.60
2022-12-08T00:26:23.351Z,23.60
2022-12-08T00:27:23.318Z,22.10
2022-12-08T00:28:23.289Z,23.00
2022-12-08T00:29:23.261Z,25.60
2022-12-08T00:30:23.239Z,24.89
2022-12-08T00:31:23.266Z,23.60
2022-12-08T00:32:23.286Z,22.29
2022-12-08T00:33:23.183Z,24.29
2022-12-08T00:34:23.164Z,23.39
2022-12-08T00:35:23.145Z,23.89
2022-12-08T00:36:23.111Z,23.79
2022-12-08T00:37:23.107Z,24.60
2022-12-08T00:38:23.055Z,25.00
2022-12-08T00:39:23.033Z,24.50
2022-12-08T00:40:23.008Z,24.00
2022-12-08T00:41:22.976Z,24.89
2022-12-08T00:42:22.951Z,25.79
2022-12-08T00:43:22.923Z,24.39
2022-12-08T00:44:22.899Z,24.39
2022-12-08T00:45:22.877Z,26.10
2022-12-08T00:46:22.927Z,26.89
2022-12-08T00:47:24.994Z,25.29
2022-12-08T00:48:22.804Z,27.29
2022-12-08T00:49:22.786Z,25.79
2022-12-08T00:50:22.758Z,26.79
2022-12-08T00:51:22.739Z,26.29
2022-12-08T00:52:22.718Z,27.50
2022-12-08T00:53:22.728Z,27.60
2022-12-08T00:54:22.672Z,29.00
2022-12-08T00:55:22.651Z,28.00
2022-12-08T00:56:22.630Z,27.50
2022-12-08T00:57:22.610Z,26.29
2022-12-08T00:58:22.590Z,25.60
2022-12-08T00:59:22.562Z,25.50
2022-12-08T01:00:22.542Z,26.20
2022-12-08T01:01:22.667Z,26.10
2022-12-08T01:02:22.495Z,26.00
2022-12-08T01:03:22.552Z,28.20
2022-12-08T01:04:22.442Z,25.70
2022-12-08T01:05:22.421Z,25.39
2022-12-08T01:06:22.393Z,25.79
2022-12-08T01:07:22.371Z,26.60
2022-12-08T01:08:22.450Z,27.20
2022-12-08T01:09:22.345Z,27.60
2022-12-08T01:10:22.292Z,25.89
2022-12-08T01:11:22.269Z,26.00
2022-12-08T01:12:22.242Z,25.50
2022-12-08T01:13:22.230Z,26.60
2022-12-08T01:14:22.198Z,27.29
2022-12-08T01:15:22.177Z,27.39
2022-12-08T01:16:22.231Z,27.20
2022-12-08T01:17:22.123Z,27.89
2022-12-08T01:18:22.099Z,28.10
2022-12-08T01:19:22.069Z,27.00
2022-12-08T01:20:22.041Z,27.50
2022-12-08T01:21:22.023Z,25.39
2022-12-08T01:22:21.998Z,26.39
2022-12-08T01:23:21.975Z,27.20
2022-12-08T01:24:21.953Z,27.00
2022-12-08T01:25:21.950Z,26.10
2022-12-08T01:26:21.905Z,26.60
2022-12-08T01:27:21.875Z,24.60
2022-12-08T01:28:21.848Z,23.89
2022-12-08T01:29:21.818Z,23.29
2022-12-08T01:30:21.790Z,24.29
2022-12-08T01:31:21.788Z,24.29
2022-12-08T01:32:21.734Z,22.89
2022-12-08T01:33:21.706Z,22.39
2022-12-08T01:34:21.676Z,22.50
2022-12-08T01:35:21.650Z,21.10
2022-12-08T01:36:21.622Z,20.89
2022-12-08T01:37:21.592Z,20.20
2022-12-08T01:38:21.567Z,20.89
2022-12-08T01:39:21.539Z,21.20
2022-12-08T01:40:21.516Z,20.79
2022-12-08T01:41:21.529Z,18.79
2022-12-08T01:42:21.475Z,19.39
2022-12-08T01:43:21.450Z,18.10
2022-12-08T01:44:21.428Z,18.50
2022-12-08T01:45:21.406Z,18.50
2022-12-08T01:46:21.474Z,17.10
2022-12-08T01:47:21.346Z,17.10
2022-12-08T01:48:21.369Z,17.00
2022-12-08T01:49:21.279Z,16.70
2022-12-08T01:50:21.247Z,16.70
2022-12-08T01:51:21.215Z,16.70
2022-12-08T01:52:21.183Z,15.60
2022-12-08T01:53:21.149Z,16.20
2022-12-08T01:54:21.108Z,16.50
2022-12-08T01:55:21.074Z,14.89
2022-12-08T01:56:21.038Z,14.60
2022-12-08T01:57:21.026Z,14.60
2022-12-08T01:58:20.963Z,14.30
2022-12-08T01:59:20.926Z,14.50
2022-12-08T02:00:20.890Z,13.89
2022-12-08T02:01:20.888Z,15.00
2022-12-08T02:02:20.895Z,14.10
2022-12-08T02:03:20.794Z,14.80
2022-12-08T02:04:20.761Z,13.50
2022-12-08T02:05:20.728Z,14.30
2022-12-08T02:06:20.695Z,14.60
2022-12-08T02:07:20.663Z,13.10
2022-12-08T02:08:20.725Z,13.39
2022-12-08T02:09:20.597Z,13.69
2022-12-08T02:10:20.567Z,13.60
2022-12-08T02:11:20.530Z,13.00
2022-12-08T02:12:20.497Z,13.89
2022-12-08T02:13:20.486Z,13.60
2022-12-08T02:14:20.428Z,13.00
2022-12-08T02:15:20.399Z,13.39
2022-12-08T02:16:20.453Z,13.39
2022-12-08T02:17:20.328Z,12.60
2022-12-08T02:18:20.296Z,12.60
2022-12-08T02:19:30.803Z,12.50
2022-12-08T02:20:21.240Z,13.50
2022-12-08T02:21:20.190Z,12.39
2022-12-08T02:22:20.157Z,13.30
2022-12-08T02:23:20.113Z,12.30
2022-12-08T02:24:20.076Z,13.89
2022-12-08T02:25:20.033Z,13.10
2022-12-08T02:26:19.997Z,13.50
2022-12-08T02:27:19.960Z,13.60
2022-12-08T02:28:19.913Z,13.30
2022-12-08T02:29:19.894Z,13.30
2022-12-08T02:30:19.832Z,13.19
2022-12-08T02:31:19.885Z,13.30
2022-12-08T02:32:19.750Z,12.60
2022-12-08T02:33:19.712Z,12.69
2022-12-08T02:34:19.672Z,12.80
2022-12-08T02:35:19.628Z,13.50
2022-12-08T02:36:19.586Z,13.19
2022-12-08T02:37:19.546Z,13.30
2022-12-08T02:38:19.505Z,13.10
2022-12-08T02:39:19.462Z,14.50
2022-12-08T02:40:19.420Z,13.50
2022-12-08T02:41:19.385Z,13.30
2022-12-08T02:42:19.345Z,13.30
2022-12-08T02:43:19.308Z,14.19
2022-12-08T02:44:19.268Z,13.89
2022-12-08T02:45:19.254Z,13.60
2022-12-08T02:46:19.285Z,13.00
2022-12-08T02:47:19.150Z,12.60
2022-12-08T02:48:19.109Z,14.00
2022-12-08T02:49:19.068Z,13.39
2022-12-08T02:50:19.029Z,12.39
2022-12-08T02:51:18.986Z,12.69
2022-12-08T02:52:18.943Z,13.69
2022-12-08T02:53:18.899Z,13.19
2022-12-08T02:54:18.854Z,13.69
2022-12-08T02:55:18.810Z,13.50
2022-12-08T02:56:18.765Z,13.19
2022-12-08T02:57:18.723Z,13.00
2022-12-08T02:58:18.680Z,12.69
2022-12-08T02:59:18.637Z,13.89
2022-12-08T03:00:18.589Z,12.50
2022-12-08T03:01:18.634Z,14.10
2022-12-08T03:02:18.558Z,13.19
2022-12-08T03:03:18.448Z,12.69
2022-12-08T03:04:18.399Z,14.60
2022-12-08T03:05:18.357Z,13.89
2022-12-08T03:06:18.316Z,13.60
2022-12-08T03:07:18.274Z,14.69
2022-12-08T03:08:18.260Z,14.00
2022-12-08T03:09:18.186Z,14.19
2022-12-08T03:10:18.144Z,14.69
2022-12-08T03:11:18.098Z,14.60
2022-12-08T03:12:18.052Z,14.60
2022-12-08T03:13:18.005Z,14.89
2022-12-08T03:14:17.959Z,16.20
2022-12-08T03:15:17.913Z,15.80
2022-12-08T03:16:17.920Z,16.60
2022-12-08T03:17:17.850Z,15.39
2022-12-08T03:18:17.793Z,16.00
2022-12-08T03:19:17.738Z,15.89
2022-12-08T03:20:17.684Z,17.50
2022-12-08T03:21:17.636Z,16.00
2022-12-08T03:22:17.592Z,17.70
2022-12-08T03:23:17.545Z,16.50
2022-12-08T03:24:17.499Z,16.00
2022-12-08T03:25:17.450Z,17.00
2022-12-08T03:26:17.425Z,16.20
2022-12-08T03:27:17.355Z,16.10
2022-12-08T03:28:17.309Z,17.50
2022-12-08T03:29:17.264Z,17.50
2022-12-08T03:30:17.217Z,17.89
2022-12-08T03:31:17.248Z,15.89
2022-12-08T03:32:17.130Z,17.00
2022-12-08T03:33:17.120Z,17.29
2022-12-08T03:34:17.054Z,17.29
2022-12-08T03:35:17.015Z,17.20
2022-12-08T03:36:16.974Z,18.29
2022-12-08T03:37:16.931Z,19.60
2022-12-08T03:38:16.895Z,18.50
2022-12-08T03:39:16.856Z,18.79
2022-12-08T03:40:16.824Z,18.79
2022-12-08T03:41:16.773Z,18.60
2022-12-08T03:42:16.735Z,20.39
2022-12-08T03:43:16.697Z,19.70
2022-12-08T03:44:16.660Z,18.89
2022-12-08T03:45:16.624Z,19.60
2022-12-08T03:46:16.663Z,19.20
2022-12-08T03:47:16.540Z,19.20
2022-12-08T03:48:16.507Z,19.00
2022-12-08T03:49:16.490Z,19.70
2022-12-08T03:50:16.429Z,19.79
2022-12-08T03:51:16.391Z,20.39
2022-12-08T03:52:16.345Z,20.89
2022-12-08T03:53:16.309Z,20.20
2022-12-08T03:54:16.268Z,19.79
2022-12-08T03:55:16.225Z,20.20
2022-12-08T03:56:16.188Z,20.50
2022-12-08T03:57:16.146Z,20.60
2022-12-08T03:58:16.111Z,19.60
2022-12-08T03:59:16.065Z,20.10
2022-12-08T04:00:16.017Z,21.00
2022-12-08T04:01:15.974Z,21.39
2022-12-08T04:02:16.018Z,21.60
2022-12-08T04:03:16.002Z,21.50
2022-12-08T04:04:15.841Z,21.50
2022-12-08T04:05:15.820Z,21.89
2022-12-08T04:06:15.750Z,21.89
2022-12-08T04:07:15.717Z,21.39
2022-12-08T04:08:15.746Z,21.89
2022-12-08T04:09:15.626Z,20.10
2022-12-08T04:10:15.580Z,21.50
2022-12-08T04:11:15.534Z,20.89
2022-12-08T04:12:15.492Z,21.10
2022-12-08T04:13:15.449Z,19.70
2022-12-08T04:14:15.412Z,20.50
2022-12-08T04:15:15.373Z,19.60
2022-12-08T04:16:15.376Z,20.00
2022-12-08T04:17:15.285Z,21.50
2022-12-08T04:18:15.244Z,19.89
2022-12-08T04:19:15.205Z,21.00
2022-12-08T04:20:15.160Z,20.89
2022-12-08T04:21:15.146Z,21.29
2022-12-08T04:22:15.082Z,21.10
2022-12-08T04:23:15.043Z,22.00
2022-12-08T04:24:15.002Z,21.50
2022-12-08T04:25:14.968Z,22.70
2022-12-08T04:26:14.931Z,21.89
2022-12-08T04:27:14.893Z,22.60
2022-12-08T04:28:14.854Z,23.60
2022-12-08T04:29:14.815Z,24.00
2022-12-08T04:30:14.779Z,24.29
2022-12-08T04:31:14.792Z,24.10
2022-12-08T04:32:14.697Z,25.20
2022-12-08T04:33:14.664Z,25.89
2022-12-08T04:34:14.624Z,25.60
2022-12-08T04:35:14.587Z,26.29
2022-12-08T04:36:14.550Z,26.70
2022-12-08T04:37:14.544Z,25.20
2022-12-08T04:38:14.473Z,27.10
2022-12-08T04:39:14.431Z,27.10
2022-12-08T04:40:14.390Z,26.10
2022-12-08T04:41:14.349Z,29.00
2022-12-08T04:42:14.308Z,28.20
2022-12-08T04:43:14.262Z,27.20
2022-12-08T04:44:14.221Z,29.10
2022-12-08T04:45:14.174Z,29.60
2022-12-08T04:46:14.197Z,29.70
2022-12-08T04:47:14.172Z,29.20
2022-12-08T04:48:14.056Z,30.20
2022-12-08T04:49:14.011Z,28.70
2022-12-08T04:50:13.967Z,29.79
2022-12-08T04:51:13.919Z,30.70
2022-12-08T04:52:13.871Z,31.00
2022-12-08T04:53:13.850Z,31.20
2022-12-08T04:54:13.778Z,30.60
2022-12-08T04:55:13.733Z,30.00
2022-12-08T04:56:13.695Z,30.60
2022-12-08T04:57:13.653Z,31.60
2022-12-08T04:58:13.607Z,29.60
2022-12-08T04:59:13.569Z,30.79
2022-12-08T05:00:13.534Z,31.10
2022-12-08T05:01:13.576Z,28.60
2022-12-08T05:02:13.706Z,29.79
2022-12-08T05:03:13.407Z,32.79
2022-12-08T05:04:13.363Z,31.10
2022-12-08T05:05:13.324Z,32.20
2022-12-08T05:06:13.282Z,30.89
2022-12-08T05:07:13.244Z,30.79
2022-12-08T05:08:13.296Z,30.20
2022-12-08T05:09:13.180Z,29.29
2022-12-08T05:10:13.115Z,30.39
2022-12-08T05:11:13.080Z,29.89
2022-12-08T05:12:13.034Z,29.20
2022-12-08T05:13:12.991Z,29.60
2022-12-08T05:14:12.957Z,29.79
2022-12-08T05:15:12.921Z,32.59
2022-12-08T05:16:13.006Z,32.59
2022-12-08T05:17:12.851Z,30.10
2022-12-08T05:18:12.808Z,32.70
2022-12-08T05:19:12.772Z,30.60
2022-12-08T05:20:12.727Z,29.29
2022-12-08T05:21:12.690Z,29.70
2022-12-08T05:22:12.651Z,29.29
2022-12-08T05:23:12.609Z,30.10
2022-12-08T05:24:12.569Z,32.20
2022-12-08T05:25:12.553Z,31.20
2022-12-08T05:26:12.481Z,29.79
2022-12-08T05:27:12.441Z,31.39
2022-12-08T05:28:40.308Z,29.60
2022-12-08T05:29:12.365Z,28.29
2022-12-08T05:30:12.305Z,31.50
2022-12-08T05:31:12.423Z,30.39
2022-12-08T05:32:12.225Z,29.79
2022-12-08T05:33:12.174Z,30.20
2022-12-08T05:34:12.127Z,31.50
2022-12-08T05:35:12.083Z,33.70
2022-12-08T05:36:12.042Z,30.89
2022-12-08T05:37:11.997Z,30.60
2022-12-08T05:38:11.958Z,34.00
2022-12-08T05:39:11.917Z,31.39
2022-12-08T05:40:11.872Z,31.89
2022-12-08T05:41:11.854Z,31.10
2022-12-08T05:42:11.788Z,32.50
2022-12-08T05:43:11.744Z,35.09
2022-12-08T05:44:11.709Z,34.20
2022-12-08T05:45:11.663Z,32.09
2022-12-08T05:46:11.730Z,32.79
2022-12-08T05:47:11.577Z,31.29
2022-12-08T05:48:11.539Z,32.59
2022-12-08T05:49:11.495Z,29.20
2022-12-08T05:50:11.458Z,29.79
2022-12-08T05:51:11.419Z,31.10
2022-12-08T05:52:11.379Z,29.79
2022-12-08T05:53:11.338Z,31.10
2022-12-08T05:54:11.303Z,32.70
2022-12-08T05:55:11.263Z,31.89
2022-12-08T05:56:12.343Z,29.20
2022-12-08T05:57:11.206Z,28.50
2022-12-08T05:58:11.145Z,28.70
2022-12-08T05:59:11.105Z,30.79
2022-12-08T06:00:11.068Z,30.89
2022-12-08T06:01:11.030Z,28.20
2022-12-08T06:02:11.131Z,27.50
2022-12-08T06:03:10.982Z,29.70
2022-12-08T06:04:10.909Z,29.70
2022-12-08T06:05:10.869Z,30.20
2022-12-08T06:06:10.836Z,29.39
2022-12-08T06:07:15.946Z,28.60
2022-12-08T06:08:10.860Z,29.60
2022-12-08T06:09:10.690Z,25.39
2022-12-08T06:10:10.646Z,26.89
2022-12-08T06:11:10.597Z,28.79
2022-12-08T06:12:10.556Z,27.29
2022-12-08T06:13:10.539Z,28.70
2022-12-08T06:14:10.466Z,27.29
2022-12-08T06:15:10.426Z,29.70
2022-12-08T06:16:10.427Z,28.50
2022-12-08T06:17:10.401Z,29.10
2022-12-08T06:18:10.314Z,29.39
2022-12-08T06:19:10.282Z,26.20
2022-12-08T06:20:10.253Z,28.39
2022-12-08T06:21:10.217Z,28.20
2022-12-08T06:22:10.179Z,29.00
2022-12-08T06:23:10.128Z,29.20
2022-12-08T06:24:10.087Z,27.70
2022-12-08T06:25:10.409Z,27.70
2022-12-08T06:26:10.005Z,23.89
2022-12-08T06:27:09.965Z,25.29
2022-12-08T06:28:09.926Z,26.79
2022-12-08T06:29:09.918Z,24.89
2022-12-08T06:30:09.852Z,25.79
2022-12-08T06:31:09.817Z,23.29
2022-12-08T06:32:09.821Z,25.39
2022-12-08T06:33:09.745Z,25.20
2022-12-08T06:34:09.705Z,24.70
2022-12-08T06:35:09.677Z,24.70
2022-12-08T06:36:09.626Z,26.00
2022-12-08T06:37:09.587Z,25.00
2022-12-08T06:38:09.544Z,22.89
2022-12-08T06:39:09.500Z,23.00
2022-12-08T06:40:09.468Z,22.20
2022-12-08T06:41:09.428Z,25.50
2022-12-08T06:42:09.391Z,25.10
2022-12-08T06:43:09.352Z,26.29
2022-12-08T06:44:09.307Z,24.89
2022-12-08T06:45:09.291Z,24.29
2022-12-08T06:46:09.299Z,24.50
2022-12-08T06:47:09.190Z,25.89
2022-12-08T06:48:09.146Z,25.20
2022-12-08T06:49:09.101Z,26.70
2022-12-08T06:50:09.068Z,25.50
2022-12-08T06:51:09.025Z,25.00
2022-12-08T06:52:08.993Z,25.89
2022-12-08T06:53:08.963Z,25.79
2022-12-08T06:54:08.924Z,25.20
2022-12-08T06:55:08.887Z,25.20
2022-12-08T06:56:08.847Z,27.20
2022-12-08T06:57:08.807Z,27.89
2022-12-08T06:58:08.763Z,27.60
2022-12-08T06:59:08.726Z,28.39
2022-12-08T07:00:09.066Z,26.79
2022-12-08T07:01:08.867Z,27.60
2022-12-08T07:02:08.674Z,25.00
2022-12-08T07:03:08.562Z,25.70
2022-12-08T07:04:08.530Z,27.70
2022-12-08T07:05:08.563Z,28.60
2022-12-08T07:06:08.440Z,27.60
2022-12-08T07:07:08.401Z,27.39
2022-12-08T07:08:08.444Z,26.79
2022-12-08T07:09:08.322Z,25.20
2022-12-08T07:10:08.283Z,27.60
2022-12-08T07:11:08.242Z,26.79
2022-12-08T07:12:08.197Z,28.29
2022-12-08T07:13:08.158Z,27.60
2022-12-08T07:14:08.114Z,27.39
2022-12-08T07:15:08.072Z,27.70
2022-12-08T07:16:08.030Z,27.60
2022-12-08T07:17:08.049Z,26.60
2022-12-08T07:18:07.941Z,28.29
2022-12-08T07:19:07.895Z,27.10
2022-12-08T07:20:08.020Z,27.29
2022-12-08T07:21:07.804Z,27.50
2022-12-08T07:22:07.775Z,27.60
2022-12-08T07:23:07.719Z,28.20
2022-12-08T07:24:07.676Z,26.89
2022-12-08T07:25:07.634Z,26.29
2022-12-08T07:26:07.596Z,27.50
2022-12-08T07:27:07.550Z,27.70
2022-12-08T07:28:07.507Z,25.20
2022-12-08T07:29:07.463Z,25.70
2022-12-08T07:30:07.637Z,27.50
2022-12-08T07:31:07.461Z,26.20
2022-12-08T07:32:07.347Z,23.89
2022-12-08T07:33:07.331Z,22.00
2022-12-08T07:34:07.271Z,22.10
2022-12-08T07:35:07.229Z,19.50
2022-12-08T07:36:07.188Z,20.39
2022-12-08T07:37:07.147Z,20.60
2022-12-08T07:38:07.104Z,21.00
2022-12-08T07:39:07.069Z,21.20
2022-12-08T07:40:07.554Z,18.50
2022-12-08T07:41:06.983Z,19.70
2022-12-08T07:42:06.938Z,19.60
2022-12-08T07:43:06.897Z,20.89
2022-12-08T07:44:06.853Z,20.50
2022-12-08T07:45:06.817Z,19.20
2022-12-08T07:46:06.857Z,20.79
2022-12-08T07:47:06.720Z,20.39
2022-12-08T07:48:06.668Z,20.39
2022-12-08T07:49:06.650Z,20.20
2022-12-08T07:50:06.795Z,19.29
2022-12-08T07:51:06.536Z,20.50
2022-12-08T07:52:06.491Z,19.60
2022-12-08T07:53:06.448Z,19.39
2022-12-08T07:54:06.405Z,19.39
2022-12-08T07:55:06.359Z,20.00
2022-12-08T07:56:06.313Z,21.39
2022-12-08T07:57:06.272Z,20.89
2022-12-08T07:58:06.225Z,20.00
2022-12-08T07:59:06.172Z,19.50
2022-12-08T08:00:06.550Z,19.29
2022-12-08T08:01:06.259Z,19.79
2022-12-08T08:02:23.315Z,19.50
2022-12-08T08:03:07.082Z,19.79
2022-12-08T08:04:06.059Z,20.60
2022-12-08T08:05:06.024Z,19.89
2022-12-08T08:06:05.873Z,19.39
2022-12-08T08:07:05.829Z,19.39
2022-12-08T08:08:05.906Z,19.79
2022-12-08T08:09:05.746Z,20.70
2022-12-08T08:10:06.037Z,20.10
2022-12-08T08:11:14.583Z,19.39
2022-12-08T08:12:30.238Z,19.39
2022-12-08T08:13:05.595Z,19.00
2022-12-08T08:14:05.557Z,19.70
2022-12-08T08:15:05.520Z,18.60
2022-12-08T08:16:05.716Z,19.79
2022-12-08T08:17:05.573Z,17.10
2022-12-08T08:18:05.413Z,18.50
2022-12-08T08:19:05.369Z,18.39
2022-12-08T08:20:05.763Z,17.89
2022-12-08T08:21:22.227Z,16.70
2022-12-08T08:22:06.268Z,15.80
2022-12-08T08:23:05.209Z,17.89
2022-12-08T08:24:05.186Z,16.79
2022-12-08T08:25:05.129Z,17.10
2022-12-08T08:26:05.098Z,16.89
2022-12-08T08:27:05.043Z,17.50
2022-12-08T08:28:05.014Z,16.00
2022-12-08T08:29:04.966Z,15.19
2022-12-08T08:30:05.270Z,15.50
2022-12-08T08:31:04.961Z,15.69
2022-12-08T08:32:04.839Z,13.10
2022-12-08T08:33:04.794Z,12.30
2022-12-08T08:34:04.755Z,13.80
2022-12-08T08:35:04.705Z,14.50
2022-12-08T08:36:04.662Z,15.10
2022-12-08T08:37:04.720Z,14.50
2022-12-08T08:38:04.570Z,14.60
2022-12-08T08:39:04.548Z,14.50
2022-12-08T08:40:04.807Z,14.60
2022-12-08T08:41:04.453Z,14.39
2022-12-08T08:42:04.412Z,15.00
2022-12-08T08:43:04.372Z,14.89
2022-12-08T08:44:04.332Z,15.10
2022-12-08T08:45:04.293Z,13.60
2022-12-08T08:46:04.295Z,17.89
2022-12-08T08:47:04.202Z,13.60
2022-12-08T08:48:04.161Z,12.80
2022-12-08T08:49:04.116Z,13.50
2022-12-08T08:50:04.625Z,14.50
2022-12-08T08:51:04.032Z,12.19
2022-12-08T08:52:03.991Z,11.10
2022-12-08T08:53:03.974Z,11.69
2022-12-08T08:54:03.914Z,12.69
2022-12-08T08:55:03.870Z,12.19
2022-12-08T08:56:03.821Z,10.60
2022-12-08T08:57:03.775Z,11.69
2022-12-08T08:58:03.735Z,12.10
2022-12-08T08:59:03.697Z,11.50
2022-12-08T09:00:04.093Z,13.19
2022-12-08T09:01:03.607Z,12.19
2022-12-08T09:02:03.642Z,12.89
2022-12-08T09:03:03.511Z,12.50
2022-12-08T09:04:03.564Z,12.39
2022-12-08T09:05:03.556Z,12.89
2022-12-08T09:06:03.449Z,13.50
2022-12-08T09:07:03.340Z,13.00
2022-12-08T09:08:03.362Z,13.19
2022-12-08T09:09:03.263Z,13.69
2022-12-08T09:10:03.506Z,14.10
2022-12-08T09:11:03.160Z,13.89
2022-12-08T09:12:03.098Z,13.39
2022-12-08T09:13:03.050Z,13.60
2022-12-08T09:14:02.999Z,12.19
2022-12-08T09:15:02.949Z,12.10
2022-12-08T09:16:02.965Z,12.39
2022-12-08T09:17:02.865Z,12.39
2022-12-08T09:18:02.799Z,12.50
2022-12-08T09:19:02.749Z,13.60
2022-12-08T09:20:03.275Z,12.39
2022-12-08T09:21:02.663Z,12.19
2022-12-08T09:22:02.614Z,11.60
2022-12-08T09:23:02.569Z,12.80
2022-12-08T09:24:02.527Z,11.80
2022-12-08T09:25:02.528Z,11.80
2022-12-08T09:26:02.446Z,11.89
2022-12-08T09:27:02.405Z,10.89
2022-12-08T09:28:02.364Z,11.30
2022-12-08T09:29:02.329Z,11.19
2022-12-08T09:30:02.721Z,12.10
2022-12-08T09:31:02.303Z,12.10
2022-12-08T09:32:02.224Z,12.10
2022-12-08T09:33:02.168Z,12.19
2022-12-08T09:34:02.124Z,12.00
2022-12-08T09:35:02.082Z,11.60
2022-12-08T09:36:02.039Z,10.80
2022-12-08T09:37:01.997Z,11.19
2022-12-08T09:38:01.943Z,11.39
2022-12-08T09:39:01.898Z,11.10
2022-12-08T09:40:02.018Z,11.19
2022-12-08T09:41:01.829Z,11.39
2022-12-08T09:42:01.767Z,11.50
2022-12-08T09:43:01.719Z,11.10
2022-12-08T09:44:01.673Z,11.19
2022-12-08T09:45:01.626Z,10.30
2022-12-08T09:46:01.700Z,10.50
2022-12-08T09:47:01.685Z,10.50
2022-12-08T09:48:01.482Z,11.00
2022-12-08T09:49:01.433Z,11.00
2022-12-08T09:50:01.432Z,10.89
2022-12-08T09:51:01.356Z,11.60
2022-12-08T09:52:01.293Z,11.00
2022-12-08T09:53:01.240Z,11.30
2022-12-08T09:54:01.204Z,10.89
2022-12-08T09:55:01.145Z,11.30
2022-12-08T09:56:01.097Z,11.19
2022-12-08T09:57:01.081Z,10.60
2022-12-08T09:58:01.000Z,11.19
2022-12-08T09:59:00.953Z,11.00
2022-12-08T10:00:00.927Z,11.50
2022-12-08T10:01:00.860Z,11.19
2022-12-08T10:02:02.905Z,12.30
2022-12-08T10:03:00.757Z,12.50
2022-12-08T10:04:00.712Z,12.50
2022-12-08T10:05:00.736Z,11.69
2022-12-08T10:06:00.609Z,11.39
2022-12-08T10:07:00.556Z,11.00
2022-12-08T10:08:00.584Z,11.50
2022-12-08T10:09:00.466Z,10.60
2022-12-08T10:10:00.417Z,11.80
2022-12-08T10:11:00.368Z,11.19
2022-12-08T10:12:00.321Z,11.39
2022-12-08T10:13:00.290Z,11.60
2022-12-08T10:14:00.222Z,11.60
2022-12-08T10:15:00.173Z,12.10
2022-12-08T10:16:00.307Z,12.00
2022-12-08T10:17:00.174Z,11.30
2022-12-08T10:18:00.026Z,11.60
2022-12-08T10:18:59.975Z,10.80
2022-12-08T10:19:59.922Z,10.80
2022-12-08T10:20:59.872Z,10.69
2022-12-08T10:21:59.827Z,10.50
2022-12-08T10:22:59.771Z,9.69
2022-12-08T10:23:59.715Z,9.30
2022-12-08T10:24:59.670Z,10.00
2022-12-08T10:25:59.618Z,9.60
2022-12-08T10:26:59.563Z,9.60
2022-12-08T10:27:59.516Z,9.00
2022-12-08T10:28:59.479Z,9.60
2022-12-08T10:29:59.401Z,9.39
2022-12-08T10:30:59.435Z,9.89
2022-12-08T10:31:59.353Z,9.60
2022-12-08T10:32:59.230Z,10.00
2022-12-08T10:33:59.178Z,10.00
2022-12-08T10:34:59.127Z,10.00
2022-12-08T10:35:59.077Z,10.30
2022-12-08T10:36:59.031Z,10.60
2022-12-08T10:37:58.968Z,10.60
2022-12-08T10:38:58.901Z,10.69
2022-12-08T10:39:58.844Z,10.39
2022-12-08T10:40:58.788Z,10.19
2022-12-08T10:41:58.742Z,11.00
2022-12-08T10:42:58.685Z,9.89
2022-12-08T10:43:58.634Z,10.69
2022-12-08T10:44:58.612Z,10.60
2022-12-08T10:45:58.531Z,10.10
2022-12-08T10:46:58.545Z,10.39
2022-12-08T10:47:58.431Z,10.50
2022-12-08T10:48:58.383Z,10.10
2022-12-08T10:49:58.333Z,9.39
2022-12-08T10:50:58.282Z,10.30
2022-12-08T10:51:58.227Z,9.80
2022-12-08T10:52:58.184Z,10.39
2022-12-08T10:53:58.128Z,10.10
2022-12-08T10:54:58.077Z,10.50
2022-12-08T10:55:58.024Z,10.00
2022-12-08T10:56:57.973Z,9.39
2022-12-08T10:57:57.918Z,9.39
2022-12-08T10:58:57.867Z,9.30
2022-12-08T10:59:57.821Z,9.19
2022-12-08T11:00:57.857Z,9.19
2022-12-08T11:01:57.912Z,8.80
2022-12-08T11:02:57.803Z,8.10
2022-12-08T11:03:57.614Z,7.50
2022-12-08T11:04:57.561Z,8.69
2022-12-08T11:05:57.501Z,8.10
2022-12-08T11:06:57.441Z,8.69
2022-12-08T11:07:57.415Z,7.09
2022-12-08T11:08:57.329Z,7.90
2022-12-08T11:09:57.272Z,7.59
2022-12-08T11:10:57.206Z,7.09
2022-12-08T11:11:57.147Z,7.19
2022-12-08T11:12:57.086Z,7.19
2022-12-08T11:13:57.040Z,6.50
2022-12-08T11:14:56.972Z,6.19
2022-12-08T11:15:57.023Z,6.00
2022-12-08T11:16:56.959Z,6.09
2022-12-08T11:17:57.818Z,6.40
2022-12-08T11:18:56.761Z,6.80
2022-12-08T11:19:56.710Z,6.09
2022-12-08T11:20:56.655Z,6.40
2022-12-08T11:21:56.608Z,6.09
2022-12-08T11:22:56.573Z,5.80
2022-12-08T11:23:56.508Z,5.90
2022-12-08T11:24:56.454Z,5.59
2022-12-08T11:25:56.398Z,6.00
2022-12-08T11:26:56.347Z,5.59
2022-12-08T11:27:56.294Z,5.50
2022-12-08T11:28:56.239Z,5.69
2022-12-08T11:29:56.188Z,5.19
2022-12-08T11:30:56.125Z,5.30
2022-12-08T11:31:56.160Z,5.09
2022-12-08T11:32:56.040Z,5.69
2022-12-08T11:33:55.975Z,5.50
2022-12-08T11:34:55.904Z,5.80
2022-12-08T11:35:55.851Z,5.50
2022-12-08T11:36:55.787Z,5.30
2022-12-08T11:38:03.353Z,5.50
2022-12-08T11:38:56.680Z,5.40
2022-12-08T11:39:55.606Z,4.80
2022-12-08T11:40:55.546Z,5.19
2022-12-08T11:41:55.485Z,5.19
2022-12-08T11:42:55.425Z,5.80
2022-12-08T11:43:55.365Z,5.69
2022-12-08T11:44:55.307Z,5.09
2022-12-08T11:45:55.325Z,5.59
2022-12-08T11:46:55.190Z,5.40
2022-12-08T11:47:56.092Z,5.30
2022-12-08T11:48:55.106Z,5.30
2022-12-08T11:49:55.021Z,4.80
2022-12-08T11:50:54.959Z,5.19
2022-12-08T11:51:54.889Z,5.00
2022-12-08T11:52:54.830Z,5.00
2022-12-08T11:53:54.770Z,5.00
2022-12-08T11:54:54.707Z,5.40
2022-12-08T11:55:54.646Z,5.09
2022-12-08T11:56:54.589Z,5.50
2022-12-08T11:57:54.585Z,5.40
2022-12-08T11:58:54.468Z,5.00
2022-12-08T11:59:54.406Z,5.30
2022-12-08T12:00:54.344Z,5.69
2022-12-08T12:01:54.368Z,4.80
2022-12-08T12:02:54.272Z,5.30
2022-12-08T12:03:54.173Z,5.09
2022-12-08T12:04:54.136Z,4.80
2022-12-08T12:06:12.918Z,5.50
2022-12-08T12:06:55.298Z,4.90
2022-12-08T12:07:54.020Z,5.59
2022-12-08T12:08:53.865Z,5.50
2022-12-08T12:09:53.798Z,5.09
2022-12-08T12:10:53.740Z,5.59
2022-12-08T12:11:53.683Z,5.50
2022-12-08T12:12:53.628Z,5.59
2022-12-08T12:13:53.565Z,5.80
2022-12-08T12:14:53.507Z,5.50
2022-12-08T12:15:53.446Z,5.50
2022-12-08T12:16:53.419Z,5.69
2022-12-08T12:17:53.326Z,5.69
2022-12-08T12:18:53.264Z,5.50
2022-12-08T12:19:53.206Z,5.19
2022-12-08T12:20:53.179Z,5.09
2022-12-08T12:21:53.078Z,5.90
2022-12-08T12:22:53.009Z,5.09
2022-12-08T12:23:52.945Z,5.30
2022-12-08T12:24:52.917Z,5.00
2022-12-08T12:25:52.819Z,4.90
2022-12-08T12:26:52.753Z,5.19
2022-12-08T12:27:57.231Z,5.09
2022-12-08T12:28:52.615Z,5.69
2022-12-08T12:29:55.964Z,5.09
2022-12-08T12:30:52.604Z,4.80
2022-12-08T12:31:52.424Z,5.19
2022-12-08T12:32:52.362Z,5.40
2022-12-08T12:33:52.305Z,5.00
2022-12-08T12:34:52.253Z,4.69
2022-12-08T12:35:52.173Z,5.00
2022-12-08T12:36:52.128Z,4.69
2022-12-08T12:37:52.039Z,4.80
2022-12-08T12:38:51.971Z,4.40
2022-12-08T12:39:51.895Z,4.59
2022-12-08T12:40:51.833Z,4.80
2022-12-08T12:41:51.767Z,4.59
2022-12-08T12:42:51.711Z,4.69
2022-12-08T12:43:51.643Z,4.69
2022-12-08T12:44:51.582Z,4.59
2022-12-08T12:45:51.560Z,4.19
2022-12-08T12:46:51.457Z,4.59
2022-12-08T12:47:56.349Z,4.40
2022-12-08T12:48:51.345Z,5.00
2022-12-08T12:49:51.269Z,4.50
2022-12-08T12:50:51.203Z,3.79
2022-12-08T12:51:51.139Z,4.40
2022-12-08T12:52:51.101Z,4.30
2022-12-08T12:53:51.017Z,4.19
2022-12-08T12:54:50.947Z,4.30
2022-12-08T12:55:50.883Z,4.00